Time;durP1;ratioP1;P1;durP2;ratioP2;P2;SDS_P1;SDS_P2;PMS_P1;PMS_P2;Temp;Humidity;BMP_temperature;BMP_pressure;BME280_temperature;BME280_humidity;BME280_pressure;Samples;Min_cycle;Max_cycle;Signal;HPM_P1;HPM_P2
2021/08/07 00:00:52;;;;;;;1.75;1.23;;;;;;;21.74;70.99;99587.20;;;;-57
2021/08/07 00:03:53;;;;;;;1.26;1.10;;;;;;;21.74;70.98;99590.63;;;;-61
2021/08/07 00:06:52;;;;;;;1.29;1.19;;;;;;;21.74;70.99;99591.80;;;;-52
2021/08/07 00:09:52;;;;;;;1.39;1.13;;;;;;;21.73;71.00;99585.05;;;;-51
2021/08/07 00:12:53;;;;;;;2.59;1.20;;;;;;;21.73;71.03;99579.66;;;;-62
2021/08/07 00:15:52;;;;;;;1.25;1.15;;;;;;;21.72;71.04;99579.25;;;;-57
2021/08/07 00:18:52;;;;;;;1.55;1.20;;;;;;;21.72;70.95;99579.75;;;;-61
2021/08/07 00:21:53;;;;;;;1.13;1.09;;;;;;;21.71;70.98;99577.00;;;;-57
2021/08/07 00:24:52;;;;;;;1.22;1.12;;;;;;;21.70;71.01;99570.08;;;;-57
2021/08/07 00:27:53;;;;;;;1.87;1.09;;;;;;;21.70;71.03;99575.78;;;;-51
2021/08/07 00:30:53;;;;;;;1.57;1.25;;;;;;;21.69;70.95;99566.27;;;;-61
2021/08/07 00:33:52;;;;;;;1.28;1.18;;;;;;;21.68;70.95;99568.47;;;;-51
2021/08/07 00:36:52;;;;;;;1.15;1.10;;;;;;;21.68;71.02;99556.98;;;;-51
2021/08/07 00:39:52;;;;;;;1.15;1.05;;;;;;;21.68;70.98;99555.11;;;;-57
2021/08/07 00:42:52;;;;;;;1.21;1.11;;;;;;;21.67;71.03;99556.77;;;;-57
2021/08/07 00:45:53;;;;;;;1.19;1.10;;;;;;;21.67;71.00;99559.94;;;;-52
2021/08/07 00:48:52;;;;;;;2.01;1.10;;;;;;;21.66;71.01;99569.97;;;;-53
2021/08/07 00:51:52;;;;;;;1.31;1.21;;;;;;;21.67;71.00;99570.15;;;;-57
2021/08/07 00:54:53;;;;;;;1.23;1.05;;;;;;;21.65;71.06;99574.82;;;;-58
2021/08/07 00:57:52;;;;;;;1.09;1.02;;;;;;;21.65;71.09;99582.55;;;;-61
2021/08/07 01:00:52;;;;;;;1.01;1.00;;;;;;;21.65;71.04;99575.80;;;;-52
2021/08/07 01:03:53;;;;;;;1.31;1.21;;;;;;;21.65;71.00;99572.55;;;;-51
2021/08/07 01:06:52;;;;;;;1.26;1.16;;;;;;;21.63;70.99;99566.28;;;;-51
2021/08/07 01:09:52;;;;;;;1.16;1.13;;;;;;;21.63;71.07;99559.44;;;;-51
2021/08/07 01:12:53;;;;;;;1.20;1.10;;;;;;;21.63;71.02;99555.52;;;;-51
2021/08/07 01:15:52;;;;;;;1.39;1.29;;;;;;;21.62;71.00;99553.49;;;;-52
2021/08/07 01:18:53;;;;;;;1.29;1.19;;;;;;;21.61;71.02;99549.03;;;;-53
2021/08/07 01:21:53;;;;;;;1.21;1.11;;;;;;;21.62;71.00;99553.33;;;;-52
2021/08/07 01:24:52;;;;;;;1.30;1.10;;;;;;;21.61;70.97;99551.73;;;;-52
2021/08/07 01:27:52;;;;;;;1.35;1.13;;;;;;;21.61;71.02;99559.07;;;;-52
2021/08/07 01:30:53;;;;;;;1.23;1.10;;;;;;;21.60;71.03;99559.34;;;;-51
2021/08/07 01:33:52;;;;;;;1.52;1.10;;;;;;;21.61;71.04;99558.27;;;;-57
2021/08/07 01:36:52;;;;;;;1.20;1.10;;;;;;;21.60;70.99;99559.23;;;;-61
2021/08/07 01:39:53;;;;;;;1.41;1.10;;;;;;;21.58;71.05;99553.50;;;;-52
2021/08/07 01:42:52;;;;;;;1.10;1.10;;;;;;;21.59;71.01;99548.73;;;;-51
2021/08/07 01:45:52;;;;;;;1.15;1.09;;;;;;;21.59;70.98;99549.08;;;;-51
2021/08/07 01:48:52;;;;;;;1.15;1.06;;;;;;;21.58;71.01;99544.45;;;;-51
2021/08/07 01:51:52;;;;;;;1.72;1.21;;;;;;;21.58;71.00;99539.70;;;;-62
2021/08/07 01:54:52;;;;;;;1.26;1.20;;;;;;;21.57;71.02;99537.69;;;;-61
2021/08/07 01:57:52;;;;;;;1.25;1.15;;;;;;;21.58;71.05;99536.53;;;;-51
2021/08/07 02:00:52;;;;;;;1.23;1.09;;;;;;;21.56;71.00;99526.38;;;;-51
2021/08/07 02:03:52;;;;;;;1.01;1.01;;;;;;;21.56;71.04;99527.11;;;;-57
2021/08/07 02:06:52;;;;;;;1.11;1.10;;;;;;;21.56;71.03;99531.59;;;;-51
2021/08/07 02:09:52;;;;;;;1.19;1.10;;;;;;;21.56;71.03;99529.39;;;;-62
2021/08/07 02:12:53;;;;;;;1.37;1.20;;;;;;;21.55;71.00;99523.06;;;;-61
2021/08/07 02:15:52;;;;;;;1.29;1.21;;;;;;;21.55;71.04;99514.42;;;;-52
2021/08/07 02:18:52;;;;;;;1.21;1.11;;;;;;;21.54;71.00;99511.67;;;;-61
2021/08/07 02:21:52;;;;;;;1.17;1.10;;;;;;;21.55;70.94;99510.84;;;;-51
2021/08/07 02:24:52;;;;;;;1.05;1.03;;;;;;;21.55;70.93;99513.12;;;;-61
2021/08/07 02:27:52;;;;;;;1.11;1.07;;;;;;;21.54;70.95;99509.77;;;;-61
2021/08/07 02:30:53;;;;;;;1.10;1.10;;;;;;;21.54;71.01;99516.47;;;;-58
2021/08/07 02:33:52;;;;;;;1.12;1.11;;;;;;;21.54;70.98;99517.52;;;;-58
2021/08/07 02:36:52;;;;;;;1.16;1.10;;;;;;;21.53;71.03;99516.74;;;;-51
2021/08/07 02:39:52;;;;;;;1.19;1.10;;;;;;;21.53;70.98;99520.56;;;;-57
2021/08/07 02:42:52;;;;;;;1.12;1.06;;;;;;;21.52;71.00;99525.15;;;;-51
2021/08/07 02:45:52;;;;;;;1.61;1.20;;;;;;;21.52;71.05;99518.30;;;;-61
2021/08/07 02:48:53;;;;;;;0.99;0.99;;;;;;;21.52;71.07;99509.81;;;;-51
2021/08/07 02:51:52;;;;;;;1.03;1.00;;;;;;;21.51;71.07;99505.09;;;;-58
2021/08/07 02:54:52;;;;;;;1.41;0.99;;;;;;;21.51;70.98;99499.64;;;;-57
2021/08/07 02:57:52;;;;;;;1.16;1.10;;;;;;;21.51;71.01;99498.27;;;;-57
2021/08/07 03:00:52;;;;;;;1.07;1.07;;;;;;;21.51;71.02;99497.77;;;;-57
2021/08/07 03:03:53;;;;;;;1.09;1.09;;;;;;;21.50;70.98;99499.59;;;;-51
2021/08/07 03:06:52;;;;;;;1.04;1.02;;;;;;;21.51;70.98;99499.24;;;;-52
2021/08/07 03:09:52;;;;;;;1.17;1.07;;;;;;;21.49;70.98;99501.63;;;;-51
2021/08/07 03:12:53;;;;;;;1.17;1.08;;;;;;;21.49;71.08;99500.80;;;;-52
2021/08/07 03:15:52;;;;;;;1.63;1.00;;;;;;;21.49;70.99;99493.32;;;;-52
2021/08/07 03:18:52;;;;;;;1.23;1.05;;;;;;;21.49;71.06;99497.30;;;;-52
2021/08/07 03:21:53;;;;;;;1.28;1.10;;;;;;;21.49;71.04;99495.20;;;;-51
2021/08/07 03:24:52;;;;;;;1.28;1.18;;;;;;;21.49;71.01;99491.36;;;;-61
2021/08/07 03:27:52;;;;;;;1.10;0.98;;;;;;;21.48;70.97;99486.34;;;;-61
2021/08/07 03:30:52;;;;;;;1.15;1.06;;;;;;;21.48;71.01;99480.88;;;;-61
2021/08/07 03:33:52;;;;;;;1.00;1.00;;;;;;;21.47;70.96;99478.66;;;;-61
2021/08/07 03:36:52;;;;;;;1.09;1.09;;;;;;;21.48;70.97;99475.58;;;;-61
2021/08/07 03:39:52;;;;;;;0.96;0.96;;;;;;;21.47;71.03;99470.68;;;;-51
2021/08/07 03:42:52;;;;;;;1.05;1.05;;;;;;;21.47;70.97;99471.34;;;;-51
2021/08/07 03:45:52;;;;;;;1.19;1.10;;;;;;;21.46;70.99;99478.53;;;;-51
2021/08/07 03:48:53;;;;;;;1.02;1.02;;;;;;;21.46;71.03;99472.84;;;;-51
2021/08/07 03:51:52;;;;;;;1.00;1.00;;;;;;;21.46;70.95;99478.23;;;;-51
2021/08/07 03:54:52;;;;;;;1.13;1.09;;;;;;;21.46;71.02;99477.23;;;;-61
2021/08/07 03:57:52;;;;;;;1.13;1.11;;;;;;;21.45;71.02;99470.72;;;;-62
2021/08/07 04:00:52;;;;;;;1.03;1.01;;;;;;;21.46;71.00;99465.84;;;;-61
2021/08/07 04:03:52;;;;;;;1.03;1.03;;;;;;;21.45;70.98;99464.20;;;;-51
2021/08/07 04:06:52;;;;;;;1.10;1.09;;;;;;;21.45;71.04;99466.89;;;;-51
2021/08/07 04:09:52;;;;;;;1.14;0.97;;;;;;;21.44;70.98;99466.51;;;;-52
2021/08/07 04:12:53;;;;;;;1.20;1.10;;;;;;;21.44;71.02;99472.56;;;;-51
2021/08/07 04:15:52;;;;;;;1.00;1.00;;;;;;;21.44;71.01;99466.69;;;;-51
2021/08/07 04:18:52;;;;;;;1.27;1.18;;;;;;;21.44;71.02;99467.92;;;;-51
2021/08/07 04:21:53;;;;;;;1.01;1.01;;;;;;;21.43;71.03;99463.09;;;;-51
2021/08/07 04:24:52;;;;;;;1.06;1.05;;;;;;;21.43;71.08;99469.39;;;;-53
2021/08/07 04:27:52;;;;;;;0.91;0.91;;;;;;;21.42;71.08;99464.09;;;;-51
2021/08/07 04:30:52;;;;;;;1.20;1.15;;;;;;;21.43;71.08;99456.91;;;;-51
2021/08/07 04:33:52;;;;;;;1.02;1.02;;;;;;;21.43;71.02;99453.58;;;;-52
2021/08/07 04:36:53;;;;;;;1.22;1.10;;;;;;;21.42;71.00;99453.74;;;;-51
2021/08/07 04:39:52;;;;;;;1.00;1.00;;;;;;;21.42;71.01;99458.06;;;;-52
2021/08/07 04:42:52;;;;;;;2.66;1.26;;;;;;;21.42;70.27;99457.34;;;;-51
2021/08/07 04:45:53;;;;;;;2.15;1.74;;;;;;;21.35;68.02;99456.95;;;;-51
2021/08/07 04:48:52;;;;;;;3.28;1.93;;;;;;;21.26;67.57;99456.11;;;;-51
2021/08/07 04:51:52;;;;;;;3.29;1.82;;;;;;;21.15;67.40;99455.75;;;;-51
2021/08/07 04:54:52;;;;;;;3.16;1.88;;;;;;;21.09;67.50;99460.15;;;;-51
2021/08/07 04:57:52;;;;;;;4.39;1.80;;;;;;;21.01;67.68;99455.55;;;;-51
2021/08/07 05:00:52;;;;;;;2.06;1.75;;;;;;;20.94;67.72;99444.61;;;;-51
2021/08/07 05:03:53;;;;;;;2.69;1.87;;;;;;;20.89;67.68;99445.05;;;;-51
2021/08/07 05:06:52;;;;;;;2.79;1.95;;;;;;;20.84;67.79;99443.77;;;;-51
2021/08/07 05:09:52;;;;;;;3.41;1.97;;;;;;;20.80;67.95;99445.63;;;;-51
2021/08/07 05:12:53;;;;;;;2.37;1.83;;;;;;;20.76;68.08;99441.38;;;;-51
2021/08/07 05:15:52;;;;;;;2.61;1.87;;;;;;;20.73;68.11;99447.85;;;;-51
2021/08/07 05:18:52;;;;;;;2.77;1.82;;;;;;;20.68;68.28;99445.95;;;;-51
2021/08/07 05:21:52;;;;;;;2.92;1.70;;;;;;;20.65;68.35;99444.47;;;;-51
2021/08/07 05:24:52;;;;;;;2.93;1.87;;;;;;;20.61;68.46;99435.17;;;;-50
2021/08/07 05:27:52;;;;;;;9.52;1.87;;;;;;;20.59;68.88;99445.05;;;;-57
2021/08/07 05:30:52;;;;;;;3.46;1.70;;;;;;;20.64;69.10;99451.79;;;;-58
2021/08/07 05:33:52;;;;;;;2.93;1.87;;;;;;;20.68;69.11;99443.52;;;;-57
2021/08/07 05:36:52;;;;;;;2.05;1.67;;;;;;;20.71;69.32;99440.72;;;;-50
2021/08/07 05:39:53;;;;;;;1.76;1.47;;;;;;;20.75;69.27;99441.56;;;;-50
2021/08/07 05:42:52;;;;;;;2.65;1.81;;;;;;;20.78;69.30;99439.80;;;;-50
2021/08/07 05:45:52;;;;;;;1.91;1.69;;;;;;;20.80;69.32;99438.47;;;;-50
2021/08/07 05:48:55;;;;;;;2.52;1.82;;;;;;;20.82;69.26;99434.61;;;;-49
2021/08/07 05:51:53;;;;;;;1.89;1.67;;;;;;;20.83;69.35;99445.80;;;;-49
2021/08/07 05:54:53;;;;;;;2.43;1.67;;;;;;;20.85;69.52;99453.11;;;;-49
2021/08/07 05:57:52;;;;;;;2.07;1.70;;;;;;;20.86;69.56;99450.42;;;;-49
2021/08/07 06:00:52;;;;;;;2.48;1.71;;;;;;;20.87;69.57;99449.75;;;;-49
2021/08/07 06:03:52;;;;;;;2.41;1.83;;;;;;;20.88;69.56;99458.69;;;;-49
2021/08/07 06:06:52;;;;;;;2.55;1.77;;;;;;;20.89;69.61;99458.83;;;;-49
2021/08/07 06:09:52;;;;;;;1.81;1.55;;;;;;;20.90;69.62;99455.41;;;;-49
2021/08/07 06:12:52;;;;;;;2.07;1.62;;;;;;;20.91;69.68;99456.11;;;;-49
2021/08/07 06:15:52;;;;;;;2.07;1.47;;;;;;;20.92;69.60;99453.19;;;;-49
2021/08/07 06:18:52;;;;;;;2.31;1.73;;;;;;;20.93;69.70;99450.89;;;;-49
2021/08/07 06:21:52;;;;;;;1.61;1.51;;;;;;;20.93;69.73;99448.92;;;;-49
2021/08/07 06:24:52;;;;;;;2.11;1.65;;;;;;;20.94;69.85;99446.62;;;;-49
2021/08/07 06:27:55;;;;;;;1.98;1.69;;;;;;;20.94;69.81;99445.42;;;;-49
2021/08/07 06:30:53;;;;;;;1.85;1.60;;;;;;;20.95;69.84;99441.31;;;;-49
2021/08/07 06:33:54;;;;;;;1.62;1.50;;;;;;;20.95;69.90;99444.89;;;;-49
2021/08/07 06:36:52;;;;;;;1.53;1.43;;;;;;;20.96;69.84;99441.97;;;;-49
2021/08/07 06:39:52;;;;;;;1.63;1.52;;;;;;;20.96;69.90;99450.59;;;;-49
2021/08/07 06:42:52;;;;;;;1.73;1.57;;;;;;;20.98;69.91;99445.58;;;;-49
2021/08/07 06:45:52;;;;;;;2.23;1.51;;;;;;;20.97;69.88;99443.39;;;;-49
2021/08/07 06:48:52;;;;;;;1.97;1.65;;;;;;;20.98;69.88;99437.70;;;;-49
2021/08/07 06:51:52;;;;;;;2.57;1.50;;;;;;;20.98;69.98;99434.91;;;;-51
2021/08/07 06:54:52;;;;;;;3.36;1.69;;;;;;;20.99;69.96;99426.92;;;;-51
2021/08/07 06:57:52;;;;;;;1.94;1.54;;;;;;;20.99;69.97;99416.56;;;;-57
2021/08/07 07:00:52;;;;;;;1.73;1.57;;;;;;;20.99;69.99;99414.84;;;;-58
2021/08/07 07:03:52;;;;;;;1.60;1.50;;;;;;;21.00;69.95;99418.61;;;;-58
2021/08/07 07:06:52;;;;;;;1.69;1.59;;;;;;;21.00;70.02;99427.89;;;;-57
2021/08/07 07:09:52;;;;;;;1.59;1.41;;;;;;;21.00;69.99;99432.45;;;;-58
2021/08/07 07:12:52;;;;;;;1.61;1.50;;;;;;;21.01;70.09;99436.26;;;;-57
2021/08/07 07:15:53;;;;;;;1.97;1.51;;;;;;;21.01;70.08;99432.11;;;;-52
2021/08/07 07:18:52;;;;;;;2.11;1.57;;;;;;;21.01;70.16;99434.30;;;;-52
2021/08/07 07:21:52;;;;;;;1.60;1.50;;;;;;;21.02;70.10;99439.32;;;;-52
2021/08/07 07:24:52;;;;;;;1.70;1.53;;;;;;;21.02;70.13;99438.27;;;;-52
2021/08/07 07:27:52;;;;;;;2.06;1.56;;;;;;;21.02;70.07;99434.03;;;;-53
2021/08/07 07:30:52;;;;;;;2.30;1.57;;;;;;;21.02;70.19;99441.34;;;;-50
2021/08/07 07:33:52;;;;;;;1.55;1.43;;;;;;;21.03;70.20;99443.39;;;;-51
2021/08/07 07:36:52;;;;;;;1.87;1.41;;;;;;;21.03;70.12;99446.66;;;;-57
2021/08/07 07:39:53;;;;;;;1.45;1.35;;;;;;;21.03;70.14;99446.56;;;;-57
2021/08/07 07:42:52;;;;;;;1.67;1.57;;;;;;;21.03;70.16;99443.47;;;;-49
2021/08/07 07:45:52;;;;;;;2.10;1.55;;;;;;;21.04;70.24;99442.96;;;;-50
2021/08/07 07:48:52;;;;;;;1.46;1.36;;;;;;;21.03;70.23;99443.05;;;;-51
2021/08/07 07:51:52;;;;;;;1.57;1.41;;;;;;;21.04;70.27;99436.28;;;;-51
2021/08/07 07:54:52;;;;;;;1.70;1.60;;;;;;;21.04;70.27;99435.29;;;;-49
2021/08/07 07:57:52;;;;;;;1.64;1.52;;;;;;;21.04;70.19;99431.30;;;;-49
2021/08/07 08:00:52;;;;;;;1.48;1.38;;;;;;;21.04;70.26;99425.84;;;;-57
2021/08/07 08:03:52;;;;;;;1.65;1.40;;;;;;;21.04;70.22;99417.14;;;;-53
2021/08/07 08:06:52;;;;;;;1.45;1.35;;;;;;;21.05;70.17;99405.89;;;;-52
2021/08/07 08:09:52;;;;;;;1.60;1.50;;;;;;;21.05;70.34;99397.73;;;;-49
2021/08/07 08:12:52;;;;;;;1.41;1.31;;;;;;;21.08;70.40;99399.48;;;;-51
2021/08/07 08:15:52;;;;;;;1.85;1.52;;;;;;;21.09;70.49;99402.38;;;;-52
2021/08/07 08:18:52;;;;;;;2.51;1.43;;;;;;;21.12;70.63;99413.16;;;;-61
2021/08/07 08:21:52;;;;;;;2.13;1.60;;;;;;;21.15;70.66;99419.08;;;;-52
2021/08/07 08:24:52;;;;;;;2.27;1.67;;;;;;;21.18;70.71;99420.49;;;;-53
2021/08/07 08:27:52;;;;;;;8.71;1.81;;;;;;;21.19;70.82;99428.96;;;;-51
2021/08/07 08:30:52;;;;;;;3.51;1.57;;;;;;;21.20;70.84;99428.17;;;;-50
2021/08/07 08:33:52;;;;;;;9.34;1.89;;;;;;;21.22;70.87;99429.30;;;;-54
2021/08/07 08:36:52;;;;;;;5.97;1.85;;;;;;;21.24;70.91;99430.07;;;;-59
2021/08/07 08:39:52;;;;;;;3.83;1.56;;;;;;;21.26;70.97;99427.61;;;;-51
2021/08/07 08:42:52;;;;;;;5.35;1.69;;;;;;;21.26;70.97;99420.66;;;;-53
2021/08/07 08:45:52;;;;;;;8.09;2.01;;;;;;;21.28;70.93;99418.11;;;;-60
2021/08/07 08:48:52;;;;;;;7.35;1.95;;;;;;;21.31;71.11;99422.03;;;;-52
2021/08/07 08:51:52;;;;;;;7.26;1.85;;;;;;;21.33;71.16;99413.05;;;;-54
2021/08/07 08:54:52;;;;;;;6.47;1.87;;;;;;;21.34;71.19;99404.88;;;;-53
2021/08/07 08:57:52;;;;;;;9.23;1.91;;;;;;;21.35;71.20;99401.35;;;;-56
2021/08/07 09:00:52;;;;;;;8.59;2.09;;;;;;;21.36;71.25;99410.06;;;;-55
2021/08/07 09:03:52;;;;;;;10.45;2.09;;;;;;;21.38;71.28;99407.11;;;;-55
2021/08/07 09:06:52;;;;;;;8.89;2.21;;;;;;;21.38;71.19;99402.55;;;;-60
2021/08/07 09:09:52;;;;;;;7.27;1.87;;;;;;;21.39;71.26;99401.37;;;;-51
2021/08/07 09:12:52;;;;;;;10.05;1.84;;;;;;;21.39;71.13;99398.03;;;;-63
2021/08/07 09:15:52;;;;;;;5.21;1.93;;;;;;;21.40;71.19;99392.95;;;;-60
2021/08/07 09:18:52;;;;;;;5.56;1.85;;;;;;;21.43;71.14;99390.81;;;;-58
2021/08/07 09:21:52;;;;;;;6.33;2.01;;;;;;;21.43;71.06;99385.66;;;;-51
2021/08/07 09:24:52;;;;;;;4.97;1.89;;;;;;;21.45;71.15;99384.58;;;;-51
2021/08/07 09:27:53;;;;;;;5.64;1.79;;;;;;;21.46;71.00;99391.39;;;;-53
2021/08/07 09:30:52;;;;;;;4.68;1.89;;;;;;;21.47;71.05;99395.38;;;;-51
2021/08/07 09:33:52;;;;;;;6.09;1.96;;;;;;;21.48;70.87;99388.26;;;;-50
2021/08/07 09:36:53;;;;;;;9.11;1.87;;;;;;;21.46;70.94;99381.54;;;;-57
2021/08/07 09:39:52;;;;;;;4.06;2.07;;;;;;;21.46;70.91;99385.87;;;;-57
2021/08/07 09:42:53;;;;;;;8.90;1.89;;;;;;;21.47;70.86;99389.25;;;;-57
2021/08/07 09:45:52;;;;;;;11.17;1.95;;;;;;;21.45;70.82;99395.73;;;;-48
2021/08/07 09:48:52;;;;;;;3.39;1.69;;;;;;;21.46;70.84;99390.99;;;;-48
2021/08/07 09:51:52;;;;;;;7.73;1.70;;;;;;;21.45;70.80;99384.31;;;;-48
2021/08/07 09:54:52;;;;;;;4.37;1.65;;;;;;;21.46;70.69;99388.79;;;;-48
2021/08/07 09:57:52;;;;;;;4.66;2.04;;;;;;;21.45;70.71;99390.27;;;;-47
2021/08/07 10:00:52;;;;;;;5.02;1.69;;;;;;;21.45;70.67;99392.72;;;;-48
2021/08/07 10:03:52;;;;;;;4.88;1.63;;;;;;;21.46;70.69;99396.88;;;;-48
2021/08/07 10:06:52;;;;;;;3.42;1.73;;;;;;;21.46;70.66;99387.83;;;;-50
2021/08/07 10:09:53;;;;;;;4.10;1.91;;;;;;;21.47;70.59;99380.45;;;;-51
2021/08/07 10:12:52;;;;;;;4.28;1.91;;;;;;;21.49;70.64;99383.28;;;;-51
2021/08/07 10:15:52;;;;;;;4.22;1.70;;;;;;;21.51;70.69;99388.14;;;;-48
2021/08/07 10:18:52;;;;;;;2.57;1.55;;;;;;;21.51;70.76;99381.68;;;;-53
2021/08/07 10:21:52;;;;;;;5.53;1.85;;;;;;;21.52;70.74;99384.77;;;;-51
2021/08/07 10:24:52;;;;;;;4.53;1.65;;;;;;;21.54;70.71;99382.36;;;;-50
2021/08/07 10:27:52;;;;;;;3.01;1.59;;;;;;;21.55;70.68;99378.28;;;;-48
2021/08/07 10:30:52;;;;;;;4.83;1.85;;;;;;;21.55;70.68;99374.03;;;;-49
2021/08/07 10:33:52;;;;;;;2.79;1.62;;;;;;;21.55;70.70;99363.43;;;;-56
2021/08/07 10:36:52;;;;;;;5.21;1.71;;;;;;;21.57;70.70;99366.00;;;;-52
2021/08/07 10:39:52;;;;;;;2.99;1.46;;;;;;;21.57;70.68;99364.77;;;;-48
2021/08/07 10:42:52;;;;;;;3.83;1.87;;;;;;;21.57;70.63;99353.52;;;;-48
2021/08/07 10:45:52;;;;;;;4.62;1.96;;;;;;;21.58;70.70;99344.70;;;;-49
2021/08/07 10:48:52;;;;;;;5.59;1.81;;;;;;;21.59;70.70;99347.63;;;;-52
2021/08/07 10:51:52;;;;;;;2.85;1.62;;;;;;;21.59;70.74;99345.50;;;;-54
2021/08/07 10:54:52;;;;;;;4.61;1.75;;;;;;;21.60;70.65;99351.11;;;;-49
2021/08/07 10:57:52;;;;;;;2.77;1.69;;;;;;;21.61;70.65;99357.95;;;;-57
2021/08/07 11:00:52;;;;;;;6.69;1.69;;;;;;;21.61;70.75;99362.74;;;;-52
2021/08/07 11:03:52;;;;;;;4.77;1.75;;;;;;;21.63;70.64;99356.69;;;;-60
2021/08/07 11:06:52;;;;;;;3.94;1.80;;;;;;;21.63;70.70;99347.30;;;;-53
2021/08/07 11:09:52;;;;;;;4.19;1.67;;;;;;;21.63;70.65;99346.00;;;;-55
2021/08/07 11:12:52;;;;;;;4.24;1.63;;;;;;;21.63;70.70;99339.88;;;;-62
2021/08/07 11:15:52;;;;;;;4.13;1.71;;;;;;;21.65;70.73;99340.34;;;;-60
2021/08/07 11:18:52;;;;;;;2.73;1.48;;;;;;;21.66;70.48;99343.56;;;;-65
2021/08/07 11:21:53;;;;;;;2.99;1.61;;;;;;;21.65;70.55;99350.11;;;;-64
2021/08/07 11:24:52;;;;;;;3.59;1.60;;;;;;;21.65;70.59;99341.70;;;;-65
2021/08/07 11:27:55;;;;;;;4.32;1.60;;;;;;;21.65;70.51;99339.59;;;;-65
2021/08/07 11:30:52;;;;;;;2.63;1.52;;;;;;;21.65;70.51;99342.79;;;;-54
2021/08/07 11:33:52;;;;;;;4.22;1.59;;;;;;;21.65;70.46;99345.95;;;;-55
2021/08/07 11:36:52;;;;;;;2.12;1.55;;;;;;;21.64;70.48;99342.05;;;;-54
2021/08/07 11:39:52;;;;;;;2.39;1.57;;;;;;;21.64;70.42;99332.69;;;;-54
2021/08/07 11:43:52;;;;;;;4.29;1.57;;;;;;;21.63;70.35;99321.38;;;;-55
2021/08/07 11:46:52;;;;;;;4.00;1.73;;;;;;;21.63;70.41;99307.83;;;;-55
2021/08/07 11:49:52;;;;;;;3.18;1.55;;;;;;;21.63;70.36;99296.52;;;;-55
2021/08/07 11:52:52;;;;;;;3.55;1.61;;;;;;;21.62;70.34;99291.06;;;;-54
2021/08/07 11:55:52;;;;;;;3.20;1.47;;;;;;;21.62;70.28;99292.70;;;;-55
2021/08/07 11:58:52;;;;;;;2.22;1.54;;;;;;;21.63;70.30;99304.34;;;;-55
2021/08/07 12:01:52;;;;;;;2.60;1.41;;;;;;;21.62;70.35;99305.80;;;;-55
2021/08/07 12:04:52;;;;;;;4.05;1.44;;;;;;;21.62;70.28;99310.55;;;;-55
2021/08/07 12:07:52;;;;;;;3.25;1.63;;;;;;;21.62;70.26;99320.97;;;;-55
2021/08/07 12:10:52;;;;;;;3.05;1.41;;;;;;;21.62;70.33;99330.12;;;;-55
2021/08/07 12:13:52;;;;;;;1.55;1.37;;;;;;;21.62;70.30;99335.01;;;;-65
2021/08/07 12:16:52;;;;;;;3.71;1.75;;;;;;;21.62;70.28;99329.14;;;;-65
2021/08/07 12:19:52;;;;;;;3.13;1.55;;;;;;;21.61;70.25;99330.05;;;;-65
2021/08/07 12:22:52;;;;;;;1.65;1.44;;;;;;;21.61;70.24;99324.10;;;;-65
2021/08/07 12:25:52;;;;;;;3.39;1.52;;;;;;;21.62;70.25;99320.33;;;;-52
2021/08/07 12:28:52;;;;;;;4.66;1.68;;;;;;;21.61;70.17;99334.79;;;;-53
2021/08/07 12:31:53;;;;;;;3.01;1.64;;;;;;;21.60;70.23;99339.21;;;;-52
2021/08/07 12:34:52;;;;;;;2.19;1.42;;;;;;;21.59;70.27;99336.03;;;;-52
2021/08/07 12:37:52;;;;;;;2.95;1.60;;;;;;;21.61;70.25;99347.59;;;;-66
2021/08/07 12:40:52;;;;;;;2.83;1.66;;;;;;;21.60;70.29;99349.14;;;;-63
2021/08/07 12:43:52;;;;;;;4.47;1.43;;;;;;;21.61;70.27;99350.19;;;;-61
2021/08/07 12:46:54;;;;;;;2.09;1.41;;;;;;;21.63;70.33;99354.16;;;;-62
2021/08/07 12:49:52;;;;;;;3.65;1.53;;;;;;;21.64;70.40;99349.72;;;;-62
2021/08/07 12:52:52;;;;;;;2.52;1.53;;;;;;;21.65;70.49;99353.12;;;;-62
2021/08/07 12:55:52;;;;;;;2.46;1.58;;;;;;;21.67;70.50;99361.98;;;;-60
2021/08/07 12:58:52;;;;;;;2.77;1.47;;;;;;;21.68;70.39;99371.09;;;;-59
2021/08/07 13:01:52;;;;;;;2.21;1.35;;;;;;;21.68;70.45;99375.56;;;;-51
2021/08/07 13:04:52;;;;;;;3.10;1.59;;;;;;;21.69;70.59;99366.73;;;;-49
2021/08/07 13:07:52;;;;;;;1.93;1.51;;;;;;;21.69;70.51;99361.02;;;;-48
2021/08/07 13:10:52;;;;;;;2.31;1.51;;;;;;;21.70;70.56;99351.88;;;;-50
2021/08/07 13:13:53;;;;;;;6.46;1.59;;;;;;;21.71;70.56;99346.48;;;;-53
2021/08/07 13:16:52;;;;;;;3.01;1.46;;;;;;;21.72;70.61;99347.52;;;;-52
2021/08/07 13:19:52;;;;;;;4.43;1.52;;;;;;;21.72;70.64;99338.37;;;;-52
2021/08/07 13:22:52;;;;;;;3.25;1.50;;;;;;;21.73;70.60;99332.91;;;;-51
2021/08/07 13:25:52;;;;;;;1.57;1.34;;;;;;;21.73;70.54;99342.36;;;;-51
2021/08/07 13:28:52;;;;;;;4.25;1.50;;;;;;;21.74;70.60;99352.53;;;;-51
2021/08/07 13:31:52;;;;;;;10.85;1.98;;;;;;;21.74;70.46;99367.21;;;;-53
2021/08/07 13:34:52;;;;;;;5.78;1.67;;;;;;;21.74;70.59;99381.05;;;;-51
2021/08/07 13:37:52;;;;;;;2.43;1.50;;;;;;;21.74;70.59;99390.37;;;;-52
2021/08/07 13:40:52;;;;;;;3.83;1.82;;;;;;;21.76;70.57;99375.65;;;;-51
2021/08/07 13:43:52;;;;;;;5.85;1.59;;;;;;;21.76;70.51;99363.91;;;;-56
2021/08/07 13:46:52;;;;;;;3.64;1.63;;;;;;;21.77;70.64;99355.16;;;;-51
2021/08/07 13:49:52;;;;;;;3.56;1.42;;;;;;;21.78;70.63;99341.28;;;;-54
2021/08/07 13:52:52;;;;;;;2.45;1.43;;;;;;;21.77;70.58;99321.31;;;;-58
2021/08/07 13:55:52;;;;;;;4.65;1.77;;;;;;;21.78;70.59;99307.99;;;;-58
2021/08/07 13:58:53;;;;;;;4.73;1.61;;;;;;;21.79;70.52;99331.40;;;;-53
2021/08/07 14:01:52;;;;;;;5.10;1.56;;;;;;;21.79;70.69;99366.77;;;;-57
2021/08/07 14:04:52;;;;;;;2.29;1.67;;;;;;;21.81;70.60;99360.72;;;;-60
2021/08/07 14:07:52;;;;;;;5.05;1.63;;;;;;;21.81;70.52;99335.50;;;;-64
2021/08/07 14:10:52;;;;;;;6.20;1.63;;;;;;;21.82;70.58;99361.66;;;;-52
2021/08/07 14:13:53;;;;;;;2.92;1.41;;;;;;;21.81;70.60;99357.78;;;;-51
2021/08/07 14:16:52;;;;;;;2.98;1.52;;;;;;;21.82;70.65;99350.17;;;;-53
2021/08/07 14:19:52;;;;;;;3.87;1.40;;;;;;;21.82;70.47;99347.00;;;;-52
2021/08/07 14:22:52;;;;;;;3.65;1.50;;;;;;;21.82;70.61;99348.30;;;;-51
2021/08/07 14:25:52;;;;;;;3.53;1.49;;;;;;;21.83;70.27;99364.34;;;;-51
2021/08/07 14:28:52;;;;;;;3.43;1.40;;;;;;;21.83;70.45;99354.53;;;;-52
2021/08/07 14:31:52;;;;;;;2.94;1.45;;;;;;;21.81;70.47;99346.59;;;;-58
2021/08/07 14:34:53;;;;;;;1.88;1.46;;;;;;;21.80;70.45;99377.02;;;;-59
2021/08/07 14:37:53;;;;;;;6.27;1.59;;;;;;;21.80;70.49;99375.15;;;;-60
2021/08/07 14:40:52;;;;;;;5.80;1.48;;;;;;;21.80;70.33;99370.02;;;;-63
2021/08/07 14:43:52;;;;;;;2.17;1.43;;;;;;;21.80;70.45;99379.88;;;;-57
2021/08/07 14:46:52;;;;;;;1.75;1.38;;;;;;;21.81;70.30;99398.13;;;;-59
2021/08/07 14:49:52;;;;;;;1.77;1.36;;;;;;;21.80;70.48;99399.22;;;;-59
2021/08/07 14:52:52;;;;;;;2.95;1.50;;;;;;;21.80;70.34;99405.91;;;;-60
2021/08/07 14:55:52;;;;;;;2.99;1.59;;;;;;;21.79;70.45;99411.81;;;;-60
2021/08/07 14:58:52;;;;;;;2.81;1.40;;;;;;;21.79;70.35;99439.19;;;;-59
2021/08/07 15:01:52;;;;;;;3.19;1.50;;;;;;;21.79;70.41;99455.76;;;;-60
2021/08/07 15:04:52;;;;;;;3.03;1.45;;;;;;;21.79;70.34;99444.98;;;;-60
2021/08/07 15:07:52;;;;;;;4.63;1.42;;;;;;;21.78;70.32;99415.98;;;;-59
2021/08/07 15:10:53;;;;;;;3.43;1.58;;;;;;;21.78;70.33;99403.09;;;;-59
2021/08/07 15:13:52;;;;;;;1.69;1.35;;;;;;;21.77;70.26;99385.73;;;;-58
2021/08/07 15:16:52;;;;;;;2.55;1.59;;;;;;;21.77;70.37;99405.73;;;;-57
2021/08/07 15:19:52;;;;;;;3.25;1.42;;;;;;;21.79;70.32;99387.84;;;;-55
2021/08/07 15:22:54;;;;;;;1.59;1.25;;;;;;;21.81;70.36;99389.16;;;;-57
2021/08/07 15:25:52;;;;;;;3.71;1.45;;;;;;;21.82;70.38;99408.48;;;;-54
2021/08/07 15:28:52;;;;;;;2.84;1.58;;;;;;;21.83;70.29;99415.87;;;;-54
2021/08/07 15:31:52;;;;;;;2.52;1.50;;;;;;;21.83;70.44;99413.91;;;;-51
2021/08/07 15:34:52;;;;;;;3.04;1.37;;;;;;;21.84;70.34;99400.85;;;;-51
2021/08/07 15:37:52;;;;;;;4.77;1.60;;;;;;;21.84;70.45;99381.19;;;;-52
2021/08/07 15:40:52;;;;;;;5.97;1.39;;;;;;;21.85;70.48;99381.98;;;;-65
2021/08/07 15:43:52;;;;;;;6.91;1.50;;;;;;;21.86;70.44;99357.91;;;;-60
2021/08/07 15:46:52;;;;;;;4.59;1.57;;;;;;;21.87;70.46;99341.16;;;;-58
2021/08/07 15:49:54;;;;;;;5.91;1.61;;;;;;;21.87;70.52;99364.08;;;;-50
2021/08/07 15:52:52;;;;;;;3.76;1.55;;;;;;;21.87;70.42;99359.13;;;;-52
2021/08/07 15:55:52;;;;;;;3.52;1.75;;;;;;;21.86;70.48;99360.76;;;;-51
2021/08/07 15:58:52;;;;;;;4.97;1.56;;;;;;;21.87;70.40;99351.28;;;;-51
2021/08/07 16:01:52;;;;;;;4.61;1.50;;;;;;;21.85;70.35;99335.91;;;;-51
2021/08/07 16:04:53;;;;;;;2.91;1.57;;;;;;;21.85;70.36;99345.86;;;;-52
2021/08/07 16:07:52;;;;;;;4.39;1.66;;;;;;;21.85;70.32;99336.55;;;;-51
2021/08/07 16:10:52;;;;;;;3.31;1.53;;;;;;;21.85;70.34;99329.95;;;;-52
2021/08/07 16:13:52;;;;;;;2.63;1.43;;;;;;;21.84;70.31;99324.34;;;;-53
2021/08/07 16:16:52;;;;;;;3.73;1.52;;;;;;;21.85;70.34;99331.17;;;;-62
2021/08/07 16:19:52;;;;;;;6.79;1.60;;;;;;;21.88;70.36;99333.38;;;;-50
2021/08/07 16:22:52;;;;;;;2.72;1.59;;;;;;;21.91;70.42;99331.62;;;;-51
2021/08/07 16:25:52;;;;;;;5.01;1.53;;;;;;;21.92;70.51;99324.09;;;;-59
2021/08/07 16:28:52;;;;;;;6.61;1.51;;;;;;;21.95;70.48;99333.95;;;;-56
2021/08/07 16:31:54;;;;;;;5.01;1.51;;;;;;;21.97;70.66;99345.84;;;;-59
2021/08/07 16:34:52;;;;;;;7.37;1.61;;;;;;;21.97;70.65;99345.82;;;;-51
2021/08/07 16:37:52;;;;;;;3.44;1.49;;;;;;;21.98;70.60;99359.05;;;;-52
2021/08/07 16:40:52;;;;;;;3.07;1.37;;;;;;;21.98;70.57;99371.45;;;;-52
2021/08/07 16:43:52;;;;;;;2.73;1.49;;;;;;;21.98;70.64;99378.20;;;;-56
2021/08/07 16:46:52;;;;;;;6.83;1.67;;;;;;;21.99;70.59;99374.27;;;;-56
2021/08/07 16:49:52;;;;;;;8.83;1.79;;;;;;;21.98;70.52;99375.83;;;;-52
2021/08/07 16:52:52;;;;;;;3.30;1.41;;;;;;;21.97;70.51;99383.18;;;;-51
2021/08/07 16:55:52;;;;;;;8.93;1.61;;;;;;;21.98;70.43;99390.05;;;;-51